Airfield :
LOGIN :

Register | Disclaimer

   EN    FR    IT 

 










Legend :    VFR   Marginal VFR   IFR   Intensive IFR   Very Intensive IFR
Visi :
Ceiling :
>= 8 km
>= 3000ft
5 to 8 km
1000 to 3000 ft
1500m to 5 km
500 to 1000 ft
800 to 1500m
200 to 500 ft
< 800m
< 200 ft
Symbols :   Thunderstorms  Fog  Heavy snow  Heavy precipitations  Wind > 20 kt
SIGMETs :     Misc.  Thunderstorms  Icing  Turbulence  Mountain Waves  Volcanic Ashes







- Airport Elevation : 17 ft
- IATA code : GRQ


EHGG - Groningen Eelde

CURRENT METAR :
  • 210055Z AUTO 21012KT 9999 OVC030 12/10 Q1010

EXPIRED METARs :
  • 210025Z AUTO 21010KT 9999 OVC024 12/11 Q1010
  • 202355Z AUTO 21008KT 9999 FEW006 BKN020 BKN024 12/12 Q1010
  • 202325Z AUTO 24012KT 4400 DZ FEW007 SCT012 OVC015 12/12 Q1009 REDZ
  • 202255Z AUTO 24012KT 4300 +DZ FEW005 SCT006 BKN008 12/12 Q1009
  • 202225Z AUTO 23014KT 5000 DZ SCT006 BKN008 BKN011 FEW015CB 12/12 Q1009

TAF TAF EHGG
Valid from the 21 at 00:00 until the 22 at 06:00 UTC


202252Z 2100/2206 21012KT 9999 SCT030
BECMG 2101/2104 16008KT
BECMG 2109/2111 19010KT 7000 -RADZ BKN014
PROB30
TEMPO 2109/2113 4500 RADZ BKN009
BECMG 2111/2113 9999 SCT020
PROB40
TEMPO 2113/2116 20014G24KT 6000 SHRA SCT018CB
BECMG 2122/2201 19016G26KT
TEMPO 2202/2206 5000 RA SHRA BKN012 SCT018CB
No reported NOTAMs for that airfield.



MET'MAP, your aeronautical weather chart ! - Copyright ORBIFLY December 2007 - Disclaimer

ORBIFLY MET'MAP TEAM :

Programming & Development : Alexandra Zaïnal
Concept & Development : Baudouin d'Aumeries
Co-Development & Prog : Marc-Olivier Méhu
Technical & hardware support : Manuel Goepfert

Contact : metmap@orbifly.com




SOURCES & CREDITS :

   NOAA